createdAt,value
2022-08-17T00:33:42.401Z,27.00
2022-08-17T00:44:05.603Z,28.73
2022-08-17T00:54:41.828Z,26.85
2022-08-17T01:05:07.627Z,28.48
2022-08-17T01:15:34.924Z,30.27
2022-08-17T01:25:58.696Z,37.42
2022-08-17T01:36:21.036Z,32.00
2022-08-17T01:46:42.625Z,34.80
2022-08-17T01:57:04.537Z,34.50
2022-08-17T02:07:27.125Z,34.72
2022-08-17T02:17:49.135Z,37.17
2022-08-17T02:28:17.679Z,38.22
2022-08-17T02:38:40.613Z,42.05
2022-08-17T02:49:02.215Z,31.90
2022-08-17T02:59:24.369Z,38.38
2022-08-17T03:09:45.958Z,35.65
2022-08-17T03:20:08.785Z,39.63
2022-08-17T03:30:30.459Z,43.13
2022-08-17T03:40:59.056Z,49.65
2022-08-17T03:51:42.268Z,45.17
2022-08-17T04:02:11.462Z,46.00
2022-08-17T04:12:49.724Z,37.50
2022-08-17T04:23:17.635Z,41.83
2022-08-17T04:33:44.106Z,41.22
2022-08-17T04:44:05.630Z,37.40
2022-08-17T04:54:27.235Z,38.03
2022-08-17T05:04:48.743Z,35.10
2022-08-17T05:15:14.267Z,28.95
2022-08-17T05:25:39.488Z,28.60
2022-08-17T05:36:04.221Z,28.65
2022-08-17T05:46:28.816Z,28.58
2022-08-17T05:56:53.209Z,26.38
2022-08-17T06:07:25.840Z,21.25
2022-08-17T06:17:47.497Z,20.25
2022-08-17T06:28:14.672Z,19.95
2022-08-17T06:38:47.425Z,23.10
2022-08-17T06:49:21.924Z,27.85
2022-08-17T06:59:56.145Z,28.88
2022-08-17T07:10:20.311Z,30.30
2022-08-17T07:20:47.997Z,32.75
2022-08-17T07:31:13.264Z,34.05
2022-08-17T07:41:57.632Z,31.73
2022-08-17T07:52:50.594Z,29.73
2022-08-17T08:03:23.725Z,26.00
2022-08-17T08:13:49.888Z,28.08
2022-08-17T08:24:41.013Z,28.67
2022-08-17T08:35:13.574Z,30.27
2022-08-17T08:45:56.434Z,25.00
2022-08-17T08:56:29.633Z,25.95
2022-08-17T09:07:16.251Z,24.55
2022-08-17T09:18:14.939Z,24.65
2022-08-17T09:28:44.778Z,22.35
2022-08-17T09:39:12.415Z,21.85
2022-08-17T09:49:42.694Z,22.25
2022-08-17T10:00:29.291Z,17.10
2022-08-17T10:11:13.883Z,24.02
2022-08-17T10:22:00.841Z,21.13
2022-08-17T10:32:39.738Z,18.90
2022-08-17T10:43:22.908Z,23.27
2022-08-17T10:53:46.110Z,18.95
2022-08-17T11:04:27.261Z,13.75
2022-08-17T11:15:04.425Z,12.68
2022-08-17T11:25:40.593Z,18.23
2022-08-17T11:36:14.370Z,16.15
2022-08-17T11:47:12.865Z,14.38
2022-08-17T11:57:40.547Z,11.27
2022-08-17T12:08:19.998Z,9.68
2022-08-17T12:18:53.779Z,10.48
2022-08-17T12:29:18.075Z,9.15
2022-08-17T12:40:03.866Z,7.85
2022-08-17T12:50:29.144Z,11.57
2022-08-17T13:01:00.164Z,6.97
2022-08-17T13:11:24.802Z,8.23
2022-08-17T13:21:58.581Z,8.90
2022-08-17T13:32:33.484Z,14.02
2022-08-17T13:42:56.500Z,12.98
2022-08-17T13:53:24.054Z,18.38
2022-08-17T14:03:46.013Z,16.60
2022-08-17T14:14:14.433Z,12.18
2022-08-17T14:24:44.611Z,12.13
2022-08-17T14:35:09.028Z,8.43
2022-08-17T14:45:33.253Z,6.32
2022-08-17T14:55:55.176Z,6.88
2022-08-17T15:06:17.248Z,3.53
2022-08-17T15:16:39.035Z,10.68
2022-08-17T15:27:00.568Z,8.82
2022-08-17T15:37:22.377Z,6.78
2022-08-17T15:47:44.013Z,5.38
2022-08-17T15:58:06.359Z,9.10
2022-08-17T16:08:28.829Z,8.77
2022-08-17T16:18:53.610Z,8.02
2022-08-17T16:29:17.888Z,10.02
2022-08-17T16:39:39.840Z,12.38
2022-08-17T16:50:03.836Z,12.60
2022-08-17T17:00:25.418Z,11.70
2022-08-17T17:10:50.761Z,11.60
2022-08-17T17:21:25.355Z,9.38
2022-08-17T17:32:13.743Z,7.93
2022-08-17T17:42:42.632Z,8.07
2022-08-17T17:53:34.986Z,6.40
2022-08-17T18:04:21.595Z,11.63
2022-08-17T18:14:46.173Z,10.63
2022-08-17T18:25:44.795Z,14.88
2022-08-17T18:36:07.092Z,11.05
2022-08-17T18:46:35.128Z,11.80
2022-08-17T18:57:00.287Z,13.18
2022-08-17T19:07:25.073Z,10.13
2022-08-17T19:18:00.148Z,11.32
2022-08-17T19:28:36.836Z,9.82
2022-08-17T19:39:38.403Z,12.00
2022-08-17T19:50:12.078Z,11.00
2022-08-17T20:00:39.597Z,11.02
2022-08-17T20:11:09.159Z,13.10
2022-08-17T20:21:45.938Z,20.50
2022-08-17T20:32:22.468Z,10.25
2022-08-17T20:42:44.068Z,11.52
2022-08-17T20:53:09.962Z,13.48
2022-08-17T21:03:39.985Z,12.35
2022-08-17T21:14:38.005Z,13.80
2022-08-17T21:25:14.724Z,14.30
2022-08-17T21:36:17.725Z,17.98
2022-08-17T21:46:42.960Z,17.92
2022-08-17T21:57:17.485Z,21.55
2022-08-17T22:07:47.741Z,15.32
2022-08-17T22:18:21.925Z,17.30
2022-08-17T22:28:47.470Z,20.55
2022-08-17T22:39:08.930Z,24.33
2022-08-17T22:49:56.452Z,21.95
2022-08-17T23:00:49.098Z,14.95
2022-08-17T23:11:10.627Z,18.45
2022-08-17T23:21:32.214Z,12.35
2022-08-17T23:32:01.204Z,15.23
2022-08-17T23:42:23.175Z,17.67
2022-08-17T23:52:46.653Z,20.13
